sensor_id;sensor_type;location;lat;lon;timestamp;P1;durP1;ratioP1;P2;durP2;ratioP2
54929;SDS011;40833;53.238;6.576;2022-08-05T00:02:05;4.80;;;1.75;;
54929;SDS011;40833;53.238;6.576;2022-08-05T00:04:30;7.00;;;1.65;;
54929;SDS011;40833;53.238;6.576;2022-08-05T00:06:56;7.85;;;1.67;;
54929;SDS011;40833;53.238;6.576;2022-08-05T00:09:22;4.53;;;1.55;;
54929;SDS011;40833;53.238;6.576;2022-08-05T00:11:47;5.82;;;1.10;;
54929;SDS011;40833;53.238;6.576;2022-08-05T00:14:17;6.82;;;1.45;;
54929;SDS011;40833;53.238;6.576;2022-08-05T00:16:43;4.40;;;1.50;;
54929;SDS011;40833;53.238;6.576;2022-08-05T00:19:09;7.63;;;1.40;;
54929;SDS011;40833;53.238;6.576;2022-08-05T00:21:35;6.10;;;1.50;;
54929;SDS011;40833;53.238;6.576;2022-08-05T00:24:01;6.78;;;1.90;;
54929;SDS011;40833;53.238;6.576;2022-08-05T00:26:27;7.78;;;1.60;;
54929;SDS011;40833;53.238;6.576;2022-08-05T00:28:53;4.10;;;1.42;;
54929;SDS011;40833;53.238;6.576;2022-08-05T00:31:18;4.75;;;1.67;;
54929;SDS011;40833;53.238;6.576;2022-08-05T00:33:44;5.22;;;1.67;;
54929;SDS011;40833;53.238;6.576;2022-08-05T00:36:10;4.18;;;1.58;;
54929;SDS011;40833;53.238;6.576;2022-08-05T00:38:35;7.47;;;1.83;;
54929;SDS011;40833;53.238;6.576;2022-08-05T00:41:03;4.07;;;1.67;;
54929;SDS011;40833;53.238;6.576;2022-08-05T00:43:32;5.25;;;2.38;;
54929;SDS011;40833;53.238;6.576;2022-08-05T00:45:59;8.88;;;2.28;;
54929;SDS011;40833;53.238;6.576;2022-08-05T00:48:36;5.13;;;2.13;;
54929;SDS011;40833;53.238;6.576;2022-08-05T00:51:02;4.63;;;2.25;;
54929;SDS011;40833;53.238;6.576;2022-08-05T00:53:28;7.53;;;2.50;;
54929;SDS011;40833;53.238;6.576;2022-08-05T00:55:53;8.05;;;2.35;;
54929;SDS011;40833;53.238;6.576;2022-08-05T00:58:19;5.93;;;2.30;;
54929;SDS011;40833;53.238;6.576;2022-08-05T01:00:45;6.88;;;3.08;;
54929;SDS011;40833;53.238;6.576;2022-08-05T01:03:11;8.18;;;3.63;;
54929;SDS011;40833;53.238;6.576;2022-08-05T01:05:37;10.45;;;2.72;;
54929;SDS011;40833;53.238;6.576;2022-08-05T01:08:06;5.18;;;2.75;;
54929;SDS011;40833;53.238;6.576;2022-08-05T01:10:37;6.38;;;2.97;;
54929;SDS011;40833;53.238;6.576;2022-08-05T01:13:12;3.33;;;2.40;;
54929;SDS011;40833;53.238;6.576;2022-08-05T01:15:52;5.22;;;2.47;;
54929;SDS011;40833;53.238;6.576;2022-08-05T01:18:24;6.60;;;2.47;;
54929;SDS011;40833;53.238;6.576;2022-08-05T01:21:00;9.57;;;3.58;;
54929;SDS011;40833;53.238;6.576;2022-08-05T01:23:34;6.55;;;2.40;;
54929;SDS011;40833;53.238;6.576;2022-08-05T01:29:24;5.97;;;2.95;;
54929;SDS011;40833;53.238;6.576;2022-08-05T01:32:05;7.90;;;2.22;;
54929;SDS011;40833;53.238;6.576;2022-08-05T01:34:35;5.47;;;2.28;;
54929;SDS011;40833;53.238;6.576;2022-08-05T01:40:01;6.28;;;2.13;;
54929;SDS011;40833;53.238;6.576;2022-08-05T01:42:29;6.07;;;2.22;;
54929;SDS011;40833;53.238;6.576;2022-08-05T01:44:57;6.32;;;2.42;;
54929;SDS011;40833;53.238;6.576;2022-08-05T01:47:28;7.13;;;1.90;;
54929;SDS011;40833;53.238;6.576;2022-08-05T01:49:56;9.27;;;1.90;;
54929;SDS011;40833;53.238;6.576;2022-08-05T01:52:24;8.00;;;1.90;;
54929;SDS011;40833;53.238;6.576;2022-08-05T01:54:57;9.60;;;2.00;;
54929;SDS011;40833;53.238;6.576;2022-08-05T01:57:33;7.47;;;1.85;;
54929;SDS011;40833;53.238;6.576;2022-08-05T02:00:02;8.45;;;1.88;;
54929;SDS011;40833;53.238;6.576;2022-08-05T02:02:30;7.13;;;2.17;;
54929;SDS011;40833;53.238;6.576;2022-08-05T02:05:01;9.38;;;2.38;;
54929;SDS011;40833;53.238;6.576;2022-08-05T02:07:30;4.93;;;1.98;;
54929;SDS011;40833;53.238;6.576;2022-08-05T02:10:01;7.53;;;1.90;;
54929;SDS011;40833;53.238;6.576;2022-08-05T02:15:24;7.00;;;1.73;;
54929;SDS011;40833;53.238;6.576;2022-08-05T02:17:57;5.97;;;2.03;;
54929;SDS011;40833;53.238;6.576;2022-08-05T02:20:29;9.30;;;2.10;;
54929;SDS011;40833;53.238;6.576;2022-08-05T02:23:04;4.93;;;2.35;;
54929;SDS011;40833;53.238;6.576;2022-08-05T02:25:35;8.48;;;2.25;;
54929;SDS011;40833;53.238;6.576;2022-08-05T02:28:03;6.50;;;1.90;;
54929;SDS011;40833;53.238;6.576;2022-08-05T02:30:34;5.53;;;1.80;;
54929;SDS011;40833;53.238;6.576;2022-08-05T02:33:14;4.13;;;1.92;;
54929;SDS011;40833;53.238;6.576;2022-08-05T02:35:42;6.25;;;1.92;;
54929;SDS011;40833;53.238;6.576;2022-08-05T02:38:09;8.60;;;2.15;;
54929;SDS011;40833;53.238;6.576;2022-08-05T02:40:39;9.93;;;1.98;;
54929;SDS011;40833;53.238;6.576;2022-08-05T02:43:07;6.68;;;1.58;;
54929;SDS011;40833;53.238;6.576;2022-08-05T02:45:35;5.15;;;1.60;;
54929;SDS011;40833;53.238;6.576;2022-08-05T02:48:03;4.70;;;1.90;;
54929;SDS011;40833;53.238;6.576;2022-08-05T02:50:29;7.50;;;2.00;;
54929;SDS011;40833;53.238;6.576;2022-08-05T02:52:55;6.82;;;1.65;;
54929;SDS011;40833;53.238;6.576;2022-08-05T02:55:22;5.55;;;1.58;;
54929;SDS011;40833;53.238;6.576;2022-08-05T02:57:48;5.63;;;1.40;;
54929;SDS011;40833;53.238;6.576;2022-08-05T03:00:15;6.93;;;1.65;;
54929;SDS011;40833;53.238;6.576;2022-08-05T03:02:41;6.55;;;1.92;;
54929;SDS011;40833;53.238;6.576;2022-08-05T03:05:10;6.85;;;1.73;;
54929;SDS011;40833;53.238;6.576;2022-08-05T03:07:39;4.95;;;1.40;;
54929;SDS011;40833;53.238;6.576;2022-08-05T03:10:06;5.20;;;1.73;;
54929;SDS011;40833;53.238;6.576;2022-08-05T03:12:36;3.55;;;1.48;;
54929;SDS011;40833;53.238;6.576;2022-08-05T03:15:04;6.40;;;1.67;;
54929;SDS011;40833;53.238;6.576;2022-08-05T03:17:31;11.68;;;2.08;;
54929;SDS011;40833;53.238;6.576;2022-08-05T03:19:59;3.33;;;1.50;;
54929;SDS011;40833;53.238;6.576;2022-08-05T03:22:25;6.28;;;1.70;;
54929;SDS011;40833;53.238;6.576;2022-08-05T03:24:57;3.78;;;1.25;;
54929;SDS011;40833;53.238;6.576;2022-08-05T03:27:23;5.55;;;1.88;;
54929;SDS011;40833;53.238;6.576;2022-08-05T03:29:50;7.55;;;2.40;;
54929;SDS011;40833;53.238;6.576;2022-08-05T03:32:16;6.97;;;2.08;;
54929;SDS011;40833;53.238;6.576;2022-08-05T03:34:43;7.63;;;2.20;;
54929;SDS011;40833;53.238;6.576;2022-08-05T03:37:10;4.57;;;1.75;;
54929;SDS011;40833;53.238;6.576;2022-08-05T03:39:36;4.30;;;2.00;;
54929;SDS011;40833;53.238;6.576;2022-08-05T03:42:02;4.32;;;1.83;;
54929;SDS011;40833;53.238;6.576;2022-08-05T03:44:31;7.90;;;2.47;;
54929;SDS011;40833;53.238;6.576;2022-08-05T03:46:57;8.35;;;2.15;;
54929;SDS011;40833;53.238;6.576;2022-08-05T03:49:23;8.57;;;1.90;;
54929;SDS011;40833;53.238;6.576;2022-08-05T03:54:34;4.50;;;2.53;;
54929;SDS011;40833;53.238;6.576;2022-08-05T03:57:07;4.03;;;1.90;;
54929;SDS011;40833;53.238;6.576;2022-08-05T03:59:48;3.33;;;1.80;;
54929;SDS011;40833;53.238;6.576;2022-08-05T04:02:19;9.80;;;1.88;;
54929;SDS011;40833;53.238;6.576;2022-08-05T04:04:50;6.82;;;1.85;;
54929;SDS011;40833;53.238;6.576;2022-08-05T04:07:16;7.18;;;1.45;;
54929;SDS011;40833;53.238;6.576;2022-08-05T04:09:42;4.53;;;1.48;;
54929;SDS011;40833;53.238;6.576;2022-08-05T04:12:08;4.20;;;1.48;;
54929;SDS011;40833;53.238;6.576;2022-08-05T04:14:34;5.22;;;2.05;;
54929;SDS011;40833;53.238;6.576;2022-08-05T04:17:01;4.72;;;1.52;;
54929;SDS011;40833;53.238;6.576;2022-08-05T04:19:27;2.33;;;1.58;;
54929;SDS011;40833;53.238;6.576;2022-08-05T04:21:54;6.22;;;1.95;;
54929;SDS011;40833;53.238;6.576;2022-08-05T04:24:20;6.15;;;1.80;;
54929;SDS011;40833;53.238;6.576;2022-08-05T04:26:46;5.97;;;2.58;;
54929;SDS011;40833;53.238;6.576;2022-08-05T04:29:14;6.82;;;1.85;;
54929;SDS011;40833;53.238;6.576;2022-08-05T04:31:40;5.75;;;1.55;;
54929;SDS011;40833;53.238;6.576;2022-08-05T04:34:06;7.47;;;2.33;;
54929;SDS011;40833;53.238;6.576;2022-08-05T04:36:32;3.22;;;1.40;;
54929;SDS011;40833;53.238;6.576;2022-08-05T04:38:57;6.40;;;1.55;;
54929;SDS011;40833;53.238;6.576;2022-08-05T04:41:26;9.27;;;1.88;;
54929;SDS011;40833;53.238;6.576;2022-08-05T04:43:51;5.30;;;1.52;;
54929;SDS011;40833;53.238;6.576;2022-08-05T04:46:17;5.32;;;2.00;;
54929;SDS011;40833;53.238;6.576;2022-08-05T04:48:43;4.57;;;1.80;;
54929;SDS011;40833;53.238;6.576;2022-08-05T04:51:08;3.42;;;1.55;;
54929;SDS011;40833;53.238;6.576;2022-08-05T04:53:36;3.67;;;2.05;;
54929;SDS011;40833;53.238;6.576;2022-08-05T04:56:02;9.57;;;1.92;;
54929;SDS011;40833;53.238;6.576;2022-08-05T04:58:28;3.65;;;1.85;;
54929;SDS011;40833;53.238;6.576;2022-08-05T05:00:53;5.32;;;1.75;;
54929;SDS011;40833;53.238;6.576;2022-08-05T05:03:19;4.43;;;1.67;;
54929;SDS011;40833;53.238;6.576;2022-08-05T05:05:45;6.88;;;2.17;;
54929;SDS011;40833;53.238;6.576;2022-08-05T05:08:18;4.47;;;1.83;;
54929;SDS011;40833;53.238;6.576;2022-08-05T05:10:44;4.07;;;2.28;;
54929;SDS011;40833;53.238;6.576;2022-08-05T05:13:11;4.43;;;2.00;;
54929;SDS011;40833;53.238;6.576;2022-08-05T05:15:38;5.32;;;2.30;;
54929;SDS011;40833;53.238;6.576;2022-08-05T05:18:05;2.65;;;2.22;;
54929;SDS011;40833;53.238;6.576;2022-08-05T05:20:31;6.57;;;2.85;;
54929;SDS011;40833;53.238;6.576;2022-08-05T05:22:57;4.43;;;2.17;;
54929;SDS011;40833;53.238;6.576;2022-08-05T05:25:24;2.78;;;1.88;;
54929;SDS011;40833;53.238;6.576;2022-08-05T05:27:50;4.85;;;2.03;;
54929;SDS011;40833;53.238;6.576;2022-08-05T05:30:20;7.97;;;2.47;;
54929;SDS011;40833;53.238;6.576;2022-08-05T05:32:46;4.75;;;1.98;;
54929;SDS011;40833;53.238;6.576;2022-08-05T05:35:12;3.83;;;2.15;;
54929;SDS011;40833;53.238;6.576;2022-08-05T05:37:48;4.38;;;2.00;;
54929;SDS011;40833;53.238;6.576;2022-08-05T05:40:16;4.32;;;2.22;;
54929;SDS011;40833;53.238;6.576;2022-08-05T05:42:44;4.18;;;2.40;;
54929;SDS011;40833;53.238;6.576;2022-08-05T05:45:11;8.52;;;2.30;;
54929;SDS011;40833;53.238;6.576;2022-08-05T05:47:37;4.22;;;2.13;;
54929;SDS011;40833;53.238;6.576;2022-08-05T05:50:06;3.15;;;2.08;;
54929;SDS011;40833;53.238;6.576;2022-08-05T05:52:32;4.10;;;2.00;;
54929;SDS011;40833;53.238;6.576;2022-08-05T05:54:58;8.13;;;2.55;;
54929;SDS011;40833;53.238;6.576;2022-08-05T05:57:25;5.57;;;1.90;;
54929;SDS011;40833;53.238;6.576;2022-08-05T05:59:50;5.25;;;1.90;;
54929;SDS011;40833;53.238;6.576;2022-08-05T06:02:16;5.00;;;1.73;;
54929;SDS011;40833;53.238;6.576;2022-08-05T06:04:42;5.13;;;1.95;;
54929;SDS011;40833;53.238;6.576;2022-08-05T06:07:08;3.53;;;2.03;;
54929;SDS011;40833;53.238;6.576;2022-08-05T06:09:33;6.78;;;1.85;;
54929;SDS011;40833;53.238;6.576;2022-08-05T06:11:59;6.87;;;1.60;;
54929;SDS011;40833;53.238;6.576;2022-08-05T06:14:25;4.67;;;1.90;;
54929;SDS011;40833;53.238;6.576;2022-08-05T06:16:55;3.33;;;1.48;;
54929;SDS011;40833;53.238;6.576;2022-08-05T06:19:21;2.03;;;1.13;;
54929;SDS011;40833;53.238;6.576;2022-08-05T06:21:46;4.30;;;1.40;;
54929;SDS011;40833;53.238;6.576;2022-08-05T06:24:12;6.10;;;1.27;;
54929;SDS011;40833;53.238;6.576;2022-08-05T06:26:41;2.72;;;1.70;;
54929;SDS011;40833;53.238;6.576;2022-08-05T06:29:07;4.57;;;1.57;;
54929;SDS011;40833;53.238;6.576;2022-08-05T06:31:33;2.43;;;1.50;;
54929;SDS011;40833;53.238;6.576;2022-08-05T06:33:59;3.38;;;1.25;;
54929;SDS011;40833;53.238;6.576;2022-08-05T06:36:25;3.42;;;1.50;;
54929;SDS011;40833;53.238;6.576;2022-08-05T06:38:50;4.70;;;1.73;;
54929;SDS011;40833;53.238;6.576;2022-08-05T06:41:18;2.55;;;1.05;;
54929;SDS011;40833;53.238;6.576;2022-08-05T06:43:45;1.77;;;0.55;;
54929;SDS011;40833;53.238;6.576;2022-08-05T06:46:11;2.10;;;0.68;;
54929;SDS011;40833;53.238;6.576;2022-08-05T06:48:37;3.72;;;0.70;;
54929;SDS011;40833;53.238;6.576;2022-08-05T06:51:03;4.00;;;0.65;;
54929;SDS011;40833;53.238;6.576;2022-08-05T06:53:29;3.85;;;0.30;;
54929;SDS011;40833;53.238;6.576;2022-08-05T06:55:58;4.80;;;0.52;;
54929;SDS011;40833;53.238;6.576;2022-08-05T06:58:24;2.20;;;0.47;;
54929;SDS011;40833;53.238;6.576;2022-08-05T07:00:51;1.83;;;0.30;;
54929;SDS011;40833;53.238;6.576;2022-08-05T07:03:17;3.13;;;0.68;;
54929;SDS011;40833;53.238;6.576;2022-08-05T07:05:43;2.42;;;0.30;;
54929;SDS011;40833;53.238;6.576;2022-08-05T07:08:09;3.50;;;0.20;;
54929;SDS011;40833;53.238;6.576;2022-08-05T07:10:35;3.13;;;0.25;;
54929;SDS011;40833;53.238;6.576;2022-08-05T07:13:01;2.30;;;0.10;;
54929;SDS011;40833;53.238;6.576;2022-08-05T07:15:45;2.58;;;0.20;;
54929;SDS011;40833;53.238;6.576;2022-08-05T07:18:29;2.67;;;0.10;;
54929;SDS011;40833;53.238;6.576;2022-08-05T07:20:55;2.42;;;0.40;;
54929;SDS011;40833;53.238;6.576;2022-08-05T07:23:21;2.33;;;0.20;;
54929;SDS011;40833;53.238;6.576;2022-08-05T07:25:47;2.13;;;0.30;;
54929;SDS011;40833;53.238;6.576;2022-08-05T07:28:12;3.70;;;0.40;;
54929;SDS011;40833;53.238;6.576;2022-08-05T07:30:38;2.67;;;0.50;;
54929;SDS011;40833;53.238;6.576;2022-08-05T07:33:04;2.22;;;0.20;;
54929;SDS011;40833;53.238;6.576;2022-08-05T07:35:32;1.77;;;0.10;;
54929;SDS011;40833;53.238;6.576;2022-08-05T07:37:57;1.42;;;0.10;;
54929;SDS011;40833;53.238;6.576;2022-08-05T07:40:23;4.75;;;0.20;;
54929;SDS011;40833;53.238;6.576;2022-08-05T07:42:49;4.05;;;0.17;;
54929;SDS011;40833;53.238;6.576;2022-08-05T07:45:14;2.38;;;0.10;;
54929;SDS011;40833;53.238;6.576;2022-08-05T07:47:40;1.17;;;0.10;;
54929;SDS011;40833;53.238;6.576;2022-08-05T07:50:07;2.25;;;1.13;;
54929;SDS011;40833;53.238;6.576;2022-08-05T07:52:39;1.08;;;0.10;;
54929;SDS011;40833;53.238;6.576;2022-08-05T07:55:07;1.70;;;0.10;;
54929;SDS011;40833;53.238;6.576;2022-08-05T07:57:33;0.80;;;0.10;;
54929;SDS011;40833;53.238;6.576;2022-08-05T07:59:59;2.00;;;0.13;;
54929;SDS011;40833;53.238;6.576;2022-08-05T08:02:26;2.78;;;0.30;;
54929;SDS011;40833;53.238;6.576;2022-08-05T08:04:52;1.90;;;0.17;;
54929;SDS011;40833;53.238;6.576;2022-08-05T08:07:19;2.70;;;0.30;;
54929;SDS011;40833;53.238;6.576;2022-08-05T08:09:46;3.25;;;0.20;;
54929;SDS011;40833;53.238;6.576;2022-08-05T08:12:12;2.17;;;0.20;;
54929;SDS011;40833;53.238;6.576;2022-08-05T08:14:38;4.35;;;0.20;;
54929;SDS011;40833;53.238;6.576;2022-08-05T08:17:04;1.77;;;0.10;;
54929;SDS011;40833;53.238;6.576;2022-08-05T08:19:37;3.60;;;0.20;;
54929;SDS011;40833;53.238;6.576;2022-08-05T08:24:32;1.45;;;0.10;;
54929;SDS011;40833;53.238;6.576;2022-08-05T08:26:58;3.10;;;0.10;;
54929;SDS011;40833;53.238;6.576;2022-08-05T08:29:24;1.00;;;0.17;;
54929;SDS011;40833;53.238;6.576;2022-08-05T08:31:50;1.83;;;0.43;;
54929;SDS011;40833;53.238;6.576;2022-08-05T08:34:20;2.50;;;0.10;;
54929;SDS011;40833;53.238;6.576;2022-08-05T08:39:13;2.67;;;0.17;;
54929;SDS011;40833;53.238;6.576;2022-08-05T08:41:42;3.15;;;0.10;;
54929;SDS011;40833;53.238;6.576;2022-08-05T08:44:11;5.63;;;0.25;;
54929;SDS011;40833;53.238;6.576;2022-08-05T08:46:39;1.17;;;0.00;;
54929;SDS011;40833;53.238;6.576;2022-08-05T08:49:05;1.90;;;0.50;;
54929;SDS011;40833;53.238;6.576;2022-08-05T08:51:33;3.75;;;0.17;;
54929;SDS011;40833;53.238;6.576;2022-08-05T08:54:00;2.03;;;0.10;;
54929;SDS011;40833;53.238;6.576;2022-08-05T08:56:26;1.52;;;0.00;;
54929;SDS011;40833;53.238;6.576;2022-08-05T08:58:52;0.77;;;0.10;;
54929;SDS011;40833;53.238;6.576;2022-08-05T09:01:18;3.28;;;0.10;;
54929;SDS011;40833;53.238;6.576;2022-08-05T09:03:51;3.55;;;0.10;;
54929;SDS011;40833;53.238;6.576;2022-08-05T09:06:18;1.83;;;0.10;;
54929;SDS011;40833;53.238;6.576;2022-08-05T09:08:44;1.92;;;0.10;;
54929;SDS011;40833;53.238;6.576;2022-08-05T09:11:10;1.95;;;0.10;;
54929;SDS011;40833;53.238;6.576;2022-08-05T09:13:37;1.60;;;0.10;;
54929;SDS011;40833;53.238;6.576;2022-08-05T09:16:03;0.68;;;0.05;;
54929;SDS011;40833;53.238;6.576;2022-08-05T09:18:32;1.45;;;0.10;;
54929;SDS011;40833;53.238;6.576;2022-08-05T09:21:00;1.20;;;0.10;;
54929;SDS011;40833;53.238;6.576;2022-08-05T09:23:26;0.22;;;0.00;;
54929;SDS011;40833;53.238;6.576;2022-08-05T09:26:04;2.03;;;0.03;;
54929;SDS011;40833;53.238;6.576;2022-08-05T09:28:32;5.68;;;0.10;;
54929;SDS011;40833;53.238;6.576;2022-08-05T09:31:00;0.77;;;0.00;;
54929;SDS011;40833;53.238;6.576;2022-08-05T09:33:30;1.67;;;0.03;;
54929;SDS011;40833;53.238;6.576;2022-08-05T09:36:10;3.72;;;0.10;;
54929;SDS011;40833;53.238;6.576;2022-08-05T09:38:36;2.58;;;0.10;;
54929;SDS011;40833;53.238;6.576;2022-08-05T09:41:02;3.45;;;0.20;;
54929;SDS011;40833;53.238;6.576;2022-08-05T09:43:30;1.23;;;0.00;;
54929;SDS011;40833;53.238;6.576;2022-08-05T09:45:58;1.92;;;0.10;;
54929;SDS011;40833;53.238;6.576;2022-08-05T09:48:25;4.53;;;0.10;;
54929;SDS011;40833;53.238;6.576;2022-08-05T09:50:54;1.33;;;0.00;;
54929;SDS011;40833;53.238;6.576;2022-08-05T09:53:22;4.13;;;0.05;;
54929;SDS011;40833;53.238;6.576;2022-08-05T09:56:10;2.97;;;0.00;;
54929;SDS011;40833;53.238;6.576;2022-08-05T09:58:35;2.22;;;0.00;;
54929;SDS011;40833;53.238;6.576;2022-08-05T10:01:05;0.98;;;0.00;;
54929;SDS011;40833;53.238;6.576;2022-08-05T10:03:32;0.60;;;0.00;;
54929;SDS011;40833;53.238;6.576;2022-08-05T10:08:37;0.60;;;0.10;;
54929;SDS011;40833;53.238;6.576;2022-08-05T10:11:04;4.40;;;0.20;;
54929;SDS011;40833;53.238;6.576;2022-08-05T10:13:37;0.40;;;0.00;;
54929;SDS011;40833;53.238;6.576;2022-08-05T10:16:04;2.15;;;0.00;;
54929;SDS011;40833;53.238;6.576;2022-08-05T10:18:31;0.50;;;0.00;;
54929;SDS011;40833;53.238;6.576;2022-08-05T10:21:02;1.55;;;0.00;;
54929;SDS011;40833;53.238;6.576;2022-08-05T10:23:34;1.33;;;0.00;;
54929;SDS011;40833;53.238;6.576;2022-08-05T10:26:02;1.08;;;0.00;;
54929;SDS011;40833;53.238;6.576;2022-08-05T10:28:30;0.50;;;0.00;;
54929;SDS011;40833;53.238;6.576;2022-08-05T10:30:56;5.22;;;0.75;;
54929;SDS011;40833;53.238;6.576;2022-08-05T10:33:24;0.63;;;0.00;;
54929;SDS011;40833;53.238;6.576;2022-08-05T10:35:52;2.47;;;0.00;;
54929;SDS011;40833;53.238;6.576;2022-08-05T10:38:23;1.65;;;0.00;;
54929;SDS011;40833;53.238;6.576;2022-08-05T10:46:08;0.47;;;0.00;;
54929;SDS011;40833;53.238;6.576;2022-08-05T10:48:39;0.30;;;0.00;;
54929;SDS011;40833;53.238;6.576;2022-08-05T10:51:13;0.22;;;0.00;;
54929;SDS011;40833;53.238;6.576;2022-08-05T10:56:22;1.55;;;0.00;;
54929;SDS011;40833;53.238;6.576;2022-08-05T11:01:27;0.55;;;0.00;;
54929;SDS011;40833;53.238;6.576;2022-08-05T11:06:33;0.63;;;0.28;;
54929;SDS011;40833;53.238;6.576;2022-08-05T11:11:41;4.13;;;0.00;;
54929;SDS011;40833;53.238;6.576;2022-08-05T11:14:09;1.30;;;0.10;;
54929;SDS011;40833;53.238;6.576;2022-08-05T11:16:36;1.67;;;0.45;;
54929;SDS011;40833;53.238;6.576;2022-08-05T11:21:52;0.35;;;0.00;;
54929;SDS011;40833;53.238;6.576;2022-08-05T11:24:21;0.77;;;0.05;;
54929;SDS011;40833;53.238;6.576;2022-08-05T11:26:48;1.33;;;0.00;;
54929;SDS011;40833;53.238;6.576;2022-08-05T11:29:37;2.08;;;0.05;;
54929;SDS011;40833;53.238;6.576;2022-08-05T11:35:07;3.70;;;0.00;;
54929;SDS011;40833;53.238;6.576;2022-08-05T11:38:12;1.52;;;0.10;;
54929;SDS011;40833;53.238;6.576;2022-08-05T11:43:25;0.30;;;0.00;;
54929;SDS011;40833;53.238;6.576;2022-08-05T11:45:51;1.40;;;0.00;;
54929;SDS011;40833;53.238;6.576;2022-08-05T11:48:17;3.10;;;0.00;;
54929;SDS011;40833;53.238;6.576;2022-08-05T11:50:43;2.30;;;0.00;;
54929;SDS011;40833;53.238;6.576;2022-08-05T11:53:11;1.90;;;0.00;;
54929;SDS011;40833;53.238;6.576;2022-08-05T11:55:36;1.33;;;0.10;;
54929;SDS011;40833;53.238;6.576;2022-08-05T11:58:23;1.85;;;0.00;;
54929;SDS011;40833;53.238;6.576;2022-08-05T12:03:39;3.28;;;0.10;;
54929;SDS011;40833;53.238;6.576;2022-08-05T12:06:17;3.88;;;0.00;;
54929;SDS011;40833;53.238;6.576;2022-08-05T12:08:48;1.33;;;0.08;;
54929;SDS011;40833;53.238;6.576;2022-08-05T12:11:22;1.23;;;0.05;;
54929;SDS011;40833;53.238;6.576;2022-08-05T12:16:33;3.90;;;0.10;;
54929;SDS011;40833;53.238;6.576;2022-08-05T12:19:00;2.15;;;0.00;;
54929;SDS011;40833;53.238;6.576;2022-08-05T12:21:30;3.35;;;0.00;;
54929;SDS011;40833;53.238;6.576;2022-08-05T12:24:07;2.63;;;0.10;;
54929;SDS011;40833;53.238;6.576;2022-08-05T12:29:05;2.15;;;0.00;;
54929;SDS011;40833;53.238;6.576;2022-08-05T12:31:33;1.40;;;0.00;;
54929;SDS011;40833;53.238;6.576;2022-08-05T12:34:03;3.00;;;0.08;;
54929;SDS011;40833;53.238;6.576;2022-08-05T12:36:32;2.35;;;0.20;;
54929;SDS011;40833;53.238;6.576;2022-08-05T12:38:59;1.75;;;0.10;;
54929;SDS011;40833;53.238;6.576;2022-08-05T12:41:34;0.82;;;0.05;;
54929;SDS011;40833;53.238;6.576;2022-08-05T12:44:02;2.35;;;0.10;;
54929;SDS011;40833;53.238;6.576;2022-08-05T12:46:30;0.75;;;0.00;;
54929;SDS011;40833;53.238;6.576;2022-08-05T12:48:58;2.05;;;0.00;;
54929;SDS011;40833;53.238;6.576;2022-08-05T12:51:30;3.10;;;0.28;;
54929;SDS011;40833;53.238;6.576;2022-08-05T12:54:07;0.70;;;0.10;;
54929;SDS011;40833;53.238;6.576;2022-08-05T12:56:33;1.23;;;0.00;;
54929;SDS011;40833;53.238;6.576;2022-08-05T12:59:16;0.85;;;0.00;;
54929;SDS011;40833;53.238;6.576;2022-08-05T13:04:27;2.03;;;0.00;;
54929;SDS011;40833;53.238;6.576;2022-08-05T13:06:57;2.38;;;0.38;;
54929;SDS011;40833;53.238;6.576;2022-08-05T13:09:24;2.97;;;0.00;;
54929;SDS011;40833;53.238;6.576;2022-08-05T13:11:54;1.80;;;0.10;;
54929;SDS011;40833;53.238;6.576;2022-08-05T13:14:36;1.70;;;0.00;;
54929;SDS011;40833;53.238;6.576;2022-08-05T13:19:34;0.85;;;0.10;;
54929;SDS011;40833;53.238;6.576;2022-08-05T13:22:00;3.97;;;0.20;;
54929;SDS011;40833;53.238;6.576;2022-08-05T13:24:25;2.05;;;0.10;;
54929;SDS011;40833;53.238;6.576;2022-08-05T13:26:51;0.90;;;0.10;;
54929;SDS011;40833;53.238;6.576;2022-08-05T13:29:17;3.83;;;0.00;;
54929;SDS011;40833;53.238;6.576;2022-08-05T13:31:44;1.40;;;0.00;;
54929;SDS011;40833;53.238;6.576;2022-08-05T13:34:10;3.55;;;0.10;;
54929;SDS011;40833;53.238;6.576;2022-08-05T13:36:36;2.72;;;0.10;;
54929;SDS011;40833;53.238;6.576;2022-08-05T13:39:03;1.30;;;0.00;;
54929;SDS011;40833;53.238;6.576;2022-08-05T13:41:29;3.10;;;0.20;;
54929;SDS011;40833;53.238;6.576;2022-08-05T13:44:04;1.17;;;0.00;;
54929;SDS011;40833;53.238;6.576;2022-08-05T13:46:30;5.95;;;0.20;;
54929;SDS011;40833;53.238;6.576;2022-08-05T13:48:55;2.47;;;0.57;;
54929;SDS011;40833;53.238;6.576;2022-08-05T13:51:25;0.80;;;0.00;;
54929;SDS011;40833;53.238;6.576;2022-08-05T13:53:53;3.88;;;0.10;;
54929;SDS011;40833;53.238;6.576;2022-08-05T13:56:19;3.05;;;0.00;;
54929;SDS011;40833;53.238;6.576;2022-08-05T13:58:45;5.63;;;0.10;;
54929;SDS011;40833;53.238;6.576;2022-08-05T14:01:11;1.23;;;0.00;;
54929;SDS011;40833;53.238;6.576;2022-08-05T14:03:37;2.85;;;0.10;;
54929;SDS011;40833;53.238;6.576;2022-08-05T14:06:02;4.30;;;0.38;;
54929;SDS011;40833;53.238;6.576;2022-08-05T14:08:28;7.32;;;0.77;;
54929;SDS011;40833;53.238;6.576;2022-08-05T14:10:54;4.43;;;0.32;;
54929;SDS011;40833;53.238;6.576;2022-08-05T14:13:19;7.60;;;0.63;;
54929;SDS011;40833;53.238;6.576;2022-08-05T14:15:45;8.90;;;0.57;;
54929;SDS011;40833;53.238;6.576;2022-08-05T14:18:11;5.68;;;0.73;;
54929;SDS011;40833;53.238;6.576;2022-08-05T14:20:40;5.60;;;0.35;;
54929;SDS011;40833;53.238;6.576;2022-08-05T14:23:08;11.57;;;1.08;;
54929;SDS011;40833;53.238;6.576;2022-08-05T14:25:34;7.88;;;0.60;;
54929;SDS011;40833;53.238;6.576;2022-08-05T14:28:00;5.35;;;0.43;;
54929;SDS011;40833;53.238;6.576;2022-08-05T14:30:25;5.68;;;0.30;;
54929;SDS011;40833;53.238;6.576;2022-08-05T14:32:51;3.22;;;0.17;;
54929;SDS011;40833;53.238;6.576;2022-08-05T14:35:17;5.97;;;0.32;;
54929;SDS011;40833;53.238;6.576;2022-08-05T14:37:43;6.60;;;0.40;;
54929;SDS011;40833;53.238;6.576;2022-08-05T14:40:09;3.97;;;0.17;;
54929;SDS011;40833;53.238;6.576;2022-08-05T14:42:40;1.33;;;0.10;;
54929;SDS011;40833;53.238;6.576;2022-08-05T14:45:06;1.85;;;0.10;;
54929;SDS011;40833;53.238;6.576;2022-08-05T14:47:32;3.35;;;0.38;;
54929;SDS011;40833;53.238;6.576;2022-08-05T14:49:58;1.83;;;0.20;;
54929;SDS011;40833;53.238;6.576;2022-08-05T14:52:24;4.45;;;0.20;;
54929;SDS011;40833;53.238;6.576;2022-08-05T14:54:49;3.13;;;0.17;;
54929;SDS011;40833;53.238;6.576;2022-08-05T15:03:52;2.15;;;0.40;;
54929;SDS011;40833;53.238;6.576;2022-08-05T15:06:18;5.32;;;0.15;;
54929;SDS011;40833;53.238;6.576;2022-08-05T15:12:29;1.25;;;0.10;;
54929;SDS011;40833;53.238;6.576;2022-08-05T15:20:26;2.03;;;0.05;;
54929;SDS011;40833;53.238;6.576;2022-08-05T15:29:16;0.47;;;0.00;;
54929;SDS011;40833;53.238;6.576;2022-08-05T15:31:43;4.90;;;0.25;;
54929;SDS011;40833;53.238;6.576;2022-08-05T15:34:10;4.13;;;0.20;;
54929;SDS011;40833;53.238;6.576;2022-08-05T15:36:35;2.97;;;0.20;;
54929;SDS011;40833;53.238;6.576;2022-08-05T15:39:01;5.10;;;0.10;;
54929;SDS011;40833;53.238;6.576;2022-08-05T15:44:20;3.92;;;0.10;;
54929;SDS011;40833;53.238;6.576;2022-08-05T15:50:42;1.77;;;0.20;;
54929;SDS011;40833;53.238;6.576;2022-08-05T16:00:17;6.03;;;0.30;;
54929;SDS011;40833;53.238;6.576;2022-08-05T16:02:43;1.60;;;0.10;;
54929;SDS011;40833;53.238;6.576;2022-08-05T16:05:09;2.28;;;0.10;;
54929;SDS011;40833;53.238;6.576;2022-08-05T16:10:42;1.38;;;0.10;;
54929;SDS011;40833;53.238;6.576;2022-08-05T16:13:07;3.92;;;0.20;;
54929;SDS011;40833;53.238;6.576;2022-08-05T16:15:33;3.83;;;0.20;;
54929;SDS011;40833;53.238;6.576;2022-08-05T16:17:59;5.78;;;0.20;;
54929;SDS011;40833;53.238;6.576;2022-08-05T16:20:25;1.55;;;0.28;;
54929;SDS011;40833;53.238;6.576;2022-08-05T16:22:50;6.22;;;1.38;;
54929;SDS011;40833;53.238;6.576;2022-08-05T16:31:36;2.33;;;0.57;;
54929;SDS011;40833;53.238;6.576;2022-08-05T16:34:01;8.02;;;5.57;;
54929;SDS011;40833;53.238;6.576;2022-08-05T16:36:27;1.55;;;0.55;;